Pagrindinis puslapis
METAR-TAF:

METAR-TAF

Oro uostai :

Liepojos tarptautinis oro uostas

Liepoja, Latvija

platuma: 56-31N, ilguma: 021-05E, Aukštis: 5 m

Dabartinis oras

Ataskaita buvo paskelbta 6 minutes, ne 00:20 UTC
Vėjas 3 kt iš Rytų
Temperatūra 11°C
Drėgmė 100%
Slėgis 1022 hPa
Matomumas: 6000 m

METAR: EVLA 030020Z AUTO 09003KT 6000 NCD 11/11 Q1022

Laikas: 03:26 (00:26 UTC)

Prognozė

Ataskaita buvo paskelbta 1 valandą ir 23 minutes, ne 23:03 UTC
Prognozė galioja nuo 03 metu 00 UTC su 03 metu 24 UTC
Vėjas 7 kt iš Šiaurės Vakarų
Matomumas 10 km arba daugiau
Išsisklaidę debesys ne aukštis 2000 ft
Laikinai
nuo 03 metu 00 UTC su 03 metu 04 UTC
Matomumas: 0600 m
Su prošvaistėmis ne aukštis 100 ft
rūkas

TAF: EVLA 022303Z 0300/0324 32007KT 9999 SCT020 TEMPO 0300/0304 0600 FG BKN001

Orai ataskaitas ir orų prognozės (METAR, TAF).

turimą stotys yra geltonos ir raudonos taškus žemėlapyje.

Perkelti pele per norėdami pamatyti stoties vardą.

Tada spustelėkite, norėdami matyti oro stebėjimo ir prognozės.

Norėdami pakeisti žemėlapį: spustelėkite ant žalios mygtukų su juodo kryžiaus žemyn,; žalią mygtuką su brūkšneliu, jei norite nutolinti; arba žalių rodyklių gretimoms žemėlapius.


METAR-TAF: